sensor_id;sensor_type;location;lat;lon;timestamp;P1;durP1;ratioP1;P2;durP2;ratioP2
253;SDS011;590;48.772;8.846;2023-07-20T00:02:24;2.70;;;2.50;;
253;SDS011;590;48.772;8.846;2023-07-20T00:04:52;1.97;;;1.87;;
253;SDS011;590;48.772;8.846;2023-07-20T00:07:20;1.67;;;1.60;;
253;SDS011;590;48.772;8.846;2023-07-20T00:09:48;2.70;;;2.40;;
253;SDS011;590;48.772;8.846;2023-07-20T00:12:16;2.67;;;2.30;;
253;SDS011;590;48.772;8.846;2023-07-20T00:15:00;2.90;;;2.63;;
253;SDS011;590;48.772;8.846;2023-07-20T00:17:29;3.13;;;2.10;;
253;SDS011;590;48.772;8.846;2023-07-20T00:19:57;2.70;;;2.50;;
253;SDS011;590;48.772;8.846;2023-07-20T00:22:25;2.50;;;2.30;;
253;SDS011;590;48.772;8.846;2023-07-20T00:24:53;4.00;;;2.60;;
253;SDS011;590;48.772;8.846;2023-07-20T00:27:21;3.00;;;2.80;;
253;SDS011;590;48.772;8.846;2023-07-20T00:29:49;1.93;;;1.87;;
253;SDS011;590;48.772;8.846;2023-07-20T00:32:17;1.80;;;1.70;;
253;SDS011;590;48.772;8.846;2023-07-20T00:34:46;2.97;;;2.20;;
253;SDS011;590;48.772;8.846;2023-07-20T00:37:14;3.03;;;2.43;;
253;SDS011;590;48.772;8.846;2023-07-20T00:39:42;2.27;;;2.10;;
253;SDS011;590;48.772;8.846;2023-07-20T00:42:10;3.00;;;2.80;;
253;SDS011;590;48.772;8.846;2023-07-20T00:44:38;2.90;;;2.20;;
253;SDS011;590;48.772;8.846;2023-07-20T00:47:06;2.73;;;2.47;;
253;SDS011;590;48.772;8.846;2023-07-20T00:49:34;2.20;;;2.00;;
253;SDS011;590;48.772;8.846;2023-07-20T00:52:04;3.30;;;2.63;;
253;SDS011;590;48.772;8.846;2023-07-20T00:54:35;2.83;;;2.00;;
253;SDS011;590;48.772;8.846;2023-07-20T00:57:04;3.50;;;2.40;;
253;SDS011;590;48.772;8.846;2023-07-20T00:59:34;3.90;;;2.90;;
253;SDS011;590;48.772;8.846;2023-07-20T01:02:02;3.80;;;2.50;;
253;SDS011;590;48.772;8.846;2023-07-20T01:04:31;2.67;;;2.30;;
253;SDS011;590;48.772;8.846;2023-07-20T01:07:00;3.23;;;2.37;;
253;SDS011;590;48.772;8.846;2023-07-20T01:09:39;2.60;;;2.40;;
253;SDS011;590;48.772;8.846;2023-07-20T01:12:21;2.50;;;2.30;;
253;SDS011;590;48.772;8.846;2023-07-20T01:15:03;4.20;;;2.47;;
253;SDS011;590;48.772;8.846;2023-07-20T01:17:33;2.87;;;2.13;;
253;SDS011;590;48.772;8.846;2023-07-20T01:20:02;2.60;;;2.40;;
253;SDS011;590;48.772;8.846;2023-07-20T01:22:36;2.33;;;2.13;;
253;SDS011;590;48.772;8.846;2023-07-20T01:25:21;2.90;;;2.70;;
253;SDS011;590;48.772;8.846;2023-07-20T01:30:59;2.47;;;2.30;;
253;SDS011;590;48.772;8.846;2023-07-20T01:33:38;5.40;;;2.40;;
253;SDS011;590;48.772;8.846;2023-07-20T01:36:07;3.07;;;2.87;;
253;SDS011;590;48.772;8.846;2023-07-20T01:38:37;3.53;;;2.60;;
253;SDS011;590;48.772;8.846;2023-07-20T01:41:05;3.87;;;2.43;;
253;SDS011;590;48.772;8.846;2023-07-20T01:43:33;3.20;;;3.00;;
253;SDS011;590;48.772;8.846;2023-07-20T01:46:02;2.00;;;1.90;;
253;SDS011;590;48.772;8.846;2023-07-20T01:48:31;2.60;;;2.40;;
253;SDS011;590;48.772;8.846;2023-07-20T01:50:59;2.90;;;2.73;;
253;SDS011;590;48.772;8.846;2023-07-20T01:53:27;3.20;;;2.90;;
253;SDS011;590;48.772;8.846;2023-07-20T01:55:56;3.63;;;2.33;;
253;SDS011;590;48.772;8.846;2023-07-20T01:58:24;2.40;;;2.10;;
253;SDS011;590;48.772;8.846;2023-07-20T02:00:52;4.53;;;3.20;;
253;SDS011;590;48.772;8.846;2023-07-20T02:03:20;2.77;;;2.57;;
253;SDS011;590;48.772;8.846;2023-07-20T02:05:51;2.83;;;2.50;;
253;SDS011;590;48.772;8.846;2023-07-20T02:08:19;2.77;;;2.57;;
253;SDS011;590;48.772;8.846;2023-07-20T02:10:47;3.73;;;2.80;;
253;SDS011;590;48.772;8.846;2023-07-20T02:13:16;4.00;;;3.00;;
253;SDS011;590;48.772;8.846;2023-07-20T02:15:44;2.97;;;2.80;;
253;SDS011;590;48.772;8.846;2023-07-20T02:18:13;6.33;;;2.77;;
253;SDS011;590;48.772;8.846;2023-07-20T02:20:41;2.70;;;2.50;;
253;SDS011;590;48.772;8.846;2023-07-20T02:23:11;3.00;;;2.90;;
253;SDS011;590;48.772;8.846;2023-07-20T02:25:40;2.60;;;2.40;;
253;SDS011;590;48.772;8.846;2023-07-20T02:28:08;2.40;;;2.27;;
253;SDS011;590;48.772;8.846;2023-07-20T02:30:37;2.83;;;2.70;;
253;SDS011;590;48.772;8.846;2023-07-20T02:33:06;3.00;;;2.80;;
253;SDS011;590;48.772;8.846;2023-07-20T02:35:35;3.97;;;2.87;;
253;SDS011;590;48.772;8.846;2023-07-20T02:38:03;2.63;;;2.50;;
253;SDS011;590;48.772;8.846;2023-07-20T02:40:32;2.57;;;2.40;;
253;SDS011;590;48.772;8.846;2023-07-20T02:43:00;2.37;;;2.20;;
253;SDS011;590;48.772;8.846;2023-07-20T02:45:29;3.00;;;2.80;;
253;SDS011;590;48.772;8.846;2023-07-20T02:47:57;2.90;;;2.70;;
253;SDS011;590;48.772;8.846;2023-07-20T02:50:25;3.43;;;2.70;;
253;SDS011;590;48.772;8.846;2023-07-20T02:52:53;3.10;;;2.90;;
253;SDS011;590;48.772;8.846;2023-07-20T02:55:21;4.00;;;2.87;;
253;SDS011;590;48.772;8.846;2023-07-20T02:57:50;2.70;;;2.53;;
253;SDS011;590;48.772;8.846;2023-07-20T03:00:18;3.10;;;2.80;;
253;SDS011;590;48.772;8.846;2023-07-20T03:02:50;3.40;;;2.77;;
253;SDS011;590;48.772;8.846;2023-07-20T03:05:22;5.37;;;2.90;;
253;SDS011;590;48.772;8.846;2023-07-20T03:07:51;2.90;;;2.70;;
253;SDS011;590;48.772;8.846;2023-07-20T03:10:19;3.33;;;2.93;;
253;SDS011;590;48.772;8.846;2023-07-20T03:12:47;2.67;;;2.53;;
253;SDS011;590;48.772;8.846;2023-07-20T03:15:17;3.10;;;2.90;;
253;SDS011;590;48.772;8.846;2023-07-20T03:17:45;3.70;;;2.30;;
253;SDS011;590;48.772;8.846;2023-07-20T03:20:13;3.40;;;3.00;;
253;SDS011;590;48.772;8.846;2023-07-20T03:22:41;2.90;;;2.70;;
253;SDS011;590;48.772;8.846;2023-07-20T03:25:09;3.70;;;2.47;;
253;SDS011;590;48.772;8.846;2023-07-20T03:27:37;3.50;;;2.60;;
253;SDS011;590;48.772;8.846;2023-07-20T03:30:07;3.63;;;2.90;;
253;SDS011;590;48.772;8.846;2023-07-20T03:32:37;3.33;;;3.00;;
253;SDS011;590;48.772;8.846;2023-07-20T03:35:05;2.80;;;2.60;;
253;SDS011;590;48.772;8.846;2023-07-20T03:37:34;2.60;;;2.47;;
253;SDS011;590;48.772;8.846;2023-07-20T03:40:03;3.03;;;2.83;;
253;SDS011;590;48.772;8.846;2023-07-20T03:42:33;3.60;;;3.40;;
253;SDS011;590;48.772;8.846;2023-07-20T03:45:02;3.43;;;3.27;;
253;SDS011;590;48.772;8.846;2023-07-20T03:47:33;2.70;;;2.50;;
253;SDS011;590;48.772;8.846;2023-07-20T03:50:02;2.77;;;2.53;;
253;SDS011;590;48.772;8.846;2023-07-20T03:52:32;3.13;;;2.93;;
253;SDS011;590;48.772;8.846;2023-07-20T03:55:00;3.13;;;2.90;;
253;SDS011;590;48.772;8.846;2023-07-20T03:57:28;3.10;;;2.83;;
253;SDS011;590;48.772;8.846;2023-07-20T03:59:59;2.70;;;2.50;;
253;SDS011;590;48.772;8.846;2023-07-20T04:02:27;4.43;;;2.83;;
253;SDS011;590;48.772;8.846;2023-07-20T04:04:57;2.60;;;2.40;;
253;SDS011;590;48.772;8.846;2023-07-20T04:07:25;2.93;;;2.80;;
253;SDS011;590;48.772;8.846;2023-07-20T04:09:53;3.10;;;2.90;;
253;SDS011;590;48.772;8.846;2023-07-20T04:12:21;3.30;;;2.80;;
253;SDS011;590;48.772;8.846;2023-07-20T04:14:49;2.90;;;2.73;;
253;SDS011;590;48.772;8.846;2023-07-20T04:17:17;3.53;;;2.50;;
253;SDS011;590;48.772;8.846;2023-07-20T04:19:45;3.27;;;3.10;;
253;SDS011;590;48.772;8.846;2023-07-20T04:22:15;2.87;;;2.40;;
253;SDS011;590;48.772;8.846;2023-07-20T04:24:43;3.40;;;3.20;;
253;SDS011;590;48.772;8.846;2023-07-20T04:27:11;2.93;;;2.73;;
253;SDS011;590;48.772;8.846;2023-07-20T04:29:39;2.80;;;2.60;;
253;SDS011;590;48.772;8.846;2023-07-20T04:32:07;3.70;;;2.83;;
253;SDS011;590;48.772;8.846;2023-07-20T04:34:35;2.80;;;2.60;;
253;SDS011;590;48.772;8.846;2023-07-20T04:37:04;4.07;;;2.90;;
253;SDS011;590;48.772;8.846;2023-07-20T04:39:33;2.57;;;2.37;;
253;SDS011;590;48.772;8.846;2023-07-20T04:42:01;8.27;;;3.23;;
253;SDS011;590;48.772;8.846;2023-07-20T04:44:29;2.57;;;2.10;;
253;SDS011;590;48.772;8.846;2023-07-20T04:46:57;3.47;;;3.13;;
253;SDS011;590;48.772;8.846;2023-07-20T04:49:25;3.30;;;2.63;;
253;SDS011;590;48.772;8.846;2023-07-20T04:51:53;3.80;;;2.67;;
253;SDS011;590;48.772;8.846;2023-07-20T04:54:21;2.97;;;2.77;;
253;SDS011;590;48.772;8.846;2023-07-20T04:56:51;3.93;;;2.60;;
253;SDS011;590;48.772;8.846;2023-07-20T04:59:19;2.80;;;2.63;;
253;SDS011;590;48.772;8.846;2023-07-20T05:01:47;2.77;;;2.40;;
253;SDS011;590;48.772;8.846;2023-07-20T05:04:15;5.37;;;3.33;;
253;SDS011;590;48.772;8.846;2023-07-20T05:06:44;5.27;;;2.90;;
253;SDS011;590;48.772;8.846;2023-07-20T05:09:12;4.23;;;3.07;;
253;SDS011;590;48.772;8.846;2023-07-20T05:11:40;3.60;;;3.40;;
253;SDS011;590;48.772;8.846;2023-07-20T05:14:10;3.67;;;3.30;;
253;SDS011;590;48.772;8.846;2023-07-20T05:16:38;5.13;;;4.83;;
253;SDS011;590;48.772;8.846;2023-07-20T05:19:06;4.00;;;3.80;;
253;SDS011;590;48.772;8.846;2023-07-20T05:21:34;3.83;;;3.03;;
253;SDS011;590;48.772;8.846;2023-07-20T05:24:02;4.30;;;3.13;;
253;SDS011;590;48.772;8.846;2023-07-20T05:26:30;4.20;;;2.97;;
253;SDS011;590;48.772;8.846;2023-07-20T05:28:59;3.30;;;3.10;;
253;SDS011;590;48.772;8.846;2023-07-20T05:31:28;4.37;;;3.30;;
253;SDS011;590;48.772;8.846;2023-07-20T05:33:58;2.97;;;2.80;;
253;SDS011;590;48.772;8.846;2023-07-20T05:36:26;3.00;;;2.80;;
253;SDS011;590;48.772;8.846;2023-07-20T05:38:54;3.50;;;3.20;;
253;SDS011;590;48.772;8.846;2023-07-20T05:41:22;2.30;;;2.10;;
253;SDS011;590;48.772;8.846;2023-07-20T05:43:50;2.53;;;2.33;;
253;SDS011;590;48.772;8.846;2023-07-20T05:46:18;3.70;;;2.53;;
253;SDS011;590;48.772;8.846;2023-07-20T05:48:48;3.27;;;2.23;;
253;SDS011;590;48.772;8.846;2023-07-20T05:51:16;3.73;;;2.90;;
253;SDS011;590;48.772;8.846;2023-07-20T05:53:45;4.67;;;2.90;;
253;SDS011;590;48.772;8.846;2023-07-20T05:56:13;3.97;;;2.93;;
253;SDS011;590;48.772;8.846;2023-07-20T05:58:41;2.20;;;2.03;;
253;SDS011;590;48.772;8.846;2023-07-20T06:01:09;3.70;;;2.90;;
253;SDS011;590;48.772;8.846;2023-07-20T06:03:37;2.77;;;2.57;;
253;SDS011;590;48.772;8.846;2023-07-20T06:06:07;2.80;;;2.60;;
253;SDS011;590;48.772;8.846;2023-07-20T06:08:38;3.73;;;2.47;;
253;SDS011;590;48.772;8.846;2023-07-20T06:11:06;3.07;;;2.67;;
253;SDS011;590;48.772;8.846;2023-07-20T06:13:34;2.70;;;2.50;;
253;SDS011;590;48.772;8.846;2023-07-20T06:16:02;3.27;;;2.53;;
253;SDS011;590;48.772;8.846;2023-07-20T06:18:30;3.20;;;2.27;;
253;SDS011;590;48.772;8.846;2023-07-20T06:20:58;2.47;;;2.30;;
253;SDS011;590;48.772;8.846;2023-07-20T06:23:28;3.30;;;2.70;;
253;SDS011;590;48.772;8.846;2023-07-20T06:25:56;2.90;;;2.33;;
253;SDS011;590;48.772;8.846;2023-07-20T06:28:24;3.07;;;2.30;;
253;SDS011;590;48.772;8.846;2023-07-20T06:30:52;2.43;;;2.23;;
253;SDS011;590;48.772;8.846;2023-07-20T06:33:20;2.40;;;2.20;;
253;SDS011;590;48.772;8.846;2023-07-20T06:35:48;2.93;;;2.57;;
253;SDS011;590;48.772;8.846;2023-07-20T06:38:16;2.57;;;2.10;;
253;SDS011;590;48.772;8.846;2023-07-20T06:40:48;2.53;;;2.10;;
253;SDS011;590;48.772;8.846;2023-07-20T06:43:16;2.83;;;2.00;;
253;SDS011;590;48.772;8.846;2023-07-20T06:45:51;2.30;;;2.07;;
253;SDS011;590;48.772;8.846;2023-07-20T06:48:21;4.97;;;2.20;;
253;SDS011;590;48.772;8.846;2023-07-20T06:50:49;3.70;;;1.97;;
253;SDS011;590;48.772;8.846;2023-07-20T06:53:17;2.53;;;2.33;;
253;SDS011;590;48.772;8.846;2023-07-20T06:55:45;2.20;;;2.00;;
253;SDS011;590;48.772;8.846;2023-07-20T06:58:14;2.50;;;2.30;;
253;SDS011;590;48.772;8.846;2023-07-20T07:00:42;3.73;;;2.30;;
253;SDS011;590;48.772;8.846;2023-07-20T07:03:11;2.60;;;2.40;;
253;SDS011;590;48.772;8.846;2023-07-20T07:05:39;2.20;;;2.00;;
253;SDS011;590;48.772;8.846;2023-07-20T07:08:07;2.57;;;1.93;;
253;SDS011;590;48.772;8.846;2023-07-20T07:10:35;2.50;;;2.00;;
253;SDS011;590;48.772;8.846;2023-07-20T07:13:04;1.80;;;1.73;;
253;SDS011;590;48.772;8.846;2023-07-20T07:15:33;2.87;;;2.17;;
253;SDS011;590;48.772;8.846;2023-07-20T07:18:02;2.20;;;2.07;;
253;SDS011;590;48.772;8.846;2023-07-20T07:20:30;3.80;;;2.40;;
253;SDS011;590;48.772;8.846;2023-07-20T07:22:58;2.67;;;2.17;;
253;SDS011;590;48.772;8.846;2023-07-20T07:25:26;2.77;;;2.60;;
253;SDS011;590;48.772;8.846;2023-07-20T07:27:54;2.23;;;2.03;;
253;SDS011;590;48.772;8.846;2023-07-20T07:30:23;2.80;;;2.20;;
253;SDS011;590;48.772;8.846;2023-07-20T07:32:52;1.97;;;1.90;;
253;SDS011;590;48.772;8.846;2023-07-20T07:35:20;2.67;;;2.43;;
253;SDS011;590;48.772;8.846;2023-07-20T07:37:49;2.00;;;1.90;;
253;SDS011;590;48.772;8.846;2023-07-20T07:40:37;2.37;;;2.23;;
253;SDS011;590;48.772;8.846;2023-07-20T07:43:04;2.83;;;2.30;;
253;SDS011;590;48.772;8.846;2023-07-20T07:45:34;3.50;;;2.00;;
253;SDS011;590;48.772;8.846;2023-07-20T07:48:05;2.47;;;2.27;;
253;SDS011;590;48.772;8.846;2023-07-20T07:50:34;2.27;;;2.07;;
253;SDS011;590;48.772;8.846;2023-07-20T07:53:02;2.50;;;2.23;;
253;SDS011;590;48.772;8.846;2023-07-20T07:55:30;3.13;;;2.27;;
253;SDS011;590;48.772;8.846;2023-07-20T07:57:58;2.70;;;2.53;;
253;SDS011;590;48.772;8.846;2023-07-20T08:00:26;2.23;;;2.10;;
253;SDS011;590;48.772;8.846;2023-07-20T08:02:54;2.73;;;2.60;;
253;SDS011;590;48.772;8.846;2023-07-20T08:05:24;1.80;;;1.70;;
253;SDS011;590;48.772;8.846;2023-07-20T08:07:52;2.00;;;1.90;;
253;SDS011;590;48.772;8.846;2023-07-20T08:10:21;1.93;;;1.83;;
253;SDS011;590;48.772;8.846;2023-07-20T08:12:49;2.37;;;2.10;;
253;SDS011;590;48.772;8.846;2023-07-20T08:15:17;2.00;;;1.90;;
253;SDS011;590;48.772;8.846;2023-07-20T08:17:45;2.50;;;2.30;;
253;SDS011;590;48.772;8.846;2023-07-20T08:20:15;1.93;;;1.83;;
253;SDS011;590;48.772;8.846;2023-07-20T08:22:45;2.73;;;2.43;;
253;SDS011;590;48.772;8.846;2023-07-20T08:25:14;2.57;;;1.80;;
253;SDS011;590;48.772;8.846;2023-07-20T08:27:42;1.80;;;1.70;;
253;SDS011;590;48.772;8.846;2023-07-20T08:30:12;2.27;;;2.00;;
253;SDS011;590;48.772;8.846;2023-07-20T08:32:41;2.00;;;1.90;;
253;SDS011;590;48.772;8.846;2023-07-20T08:35:09;1.60;;;1.50;;
253;SDS011;590;48.772;8.846;2023-07-20T08:37:37;2.77;;;1.67;;
253;SDS011;590;48.772;8.846;2023-07-20T08:40:07;1.90;;;1.80;;
253;SDS011;590;48.772;8.846;2023-07-20T08:42:36;1.53;;;1.43;;
253;SDS011;590;48.772;8.846;2023-07-20T08:45:06;2.27;;;2.00;;
253;SDS011;590;48.772;8.846;2023-07-20T08:47:36;1.90;;;1.80;;
253;SDS011;590;48.772;8.846;2023-07-20T08:50:05;2.73;;;1.90;;
253;SDS011;590;48.772;8.846;2023-07-20T08:52:36;1.80;;;1.70;;
253;SDS011;590;48.772;8.846;2023-07-20T08:55:05;2.50;;;2.10;;
253;SDS011;590;48.772;8.846;2023-07-20T08:57:35;2.20;;;2.03;;
253;SDS011;590;48.772;8.846;2023-07-20T09:00:07;2.77;;;2.57;;
253;SDS011;590;48.772;8.846;2023-07-20T09:02:39;2.20;;;2.00;;
253;SDS011;590;48.772;8.846;2023-07-20T09:05:09;2.27;;;2.07;;
253;SDS011;590;48.772;8.846;2023-07-20T09:07:39;3.23;;;2.10;;
253;SDS011;590;48.772;8.846;2023-07-20T09:10:09;2.53;;;1.70;;
253;SDS011;590;48.772;8.846;2023-07-20T09:12:40;2.07;;;1.93;;
253;SDS011;590;48.772;8.846;2023-07-20T09:15:10;2.40;;;1.73;;
253;SDS011;590;48.772;8.846;2023-07-20T09:17:39;5.27;;;2.43;;
253;SDS011;590;48.772;8.846;2023-07-20T09:20:14;1.67;;;1.60;;
253;SDS011;590;48.772;8.846;2023-07-20T09:22:42;1.93;;;1.83;;
253;SDS011;590;48.772;8.846;2023-07-20T09:25:12;1.50;;;1.47;;
253;SDS011;590;48.772;8.846;2023-07-20T09:27:42;1.20;;;1.10;;
253;SDS011;590;48.772;8.846;2023-07-20T09:30:11;2.30;;;1.57;;
253;SDS011;590;48.772;8.846;2023-07-20T09:32:45;1.77;;;1.67;;
253;SDS011;590;48.772;8.846;2023-07-20T09:35:17;1.40;;;1.30;;
253;SDS011;590;48.772;8.846;2023-07-20T09:37:50;1.93;;;1.30;;
253;SDS011;590;48.772;8.846;2023-07-20T09:40:41;1.47;;;1.40;;
253;SDS011;590;48.772;8.846;2023-07-20T09:43:15;1.47;;;1.40;;
253;SDS011;590;48.772;8.846;2023-07-20T09:45:46;1.43;;;1.33;;
253;SDS011;590;48.772;8.846;2023-07-20T09:48:17;3.23;;;2.10;;
253;SDS011;590;48.772;8.846;2023-07-20T09:50:51;1.63;;;1.40;;
253;SDS011;590;48.772;8.846;2023-07-20T09:53:21;1.37;;;1.33;;
253;SDS011;590;48.772;8.846;2023-07-20T09:55:53;2.30;;;2.10;;
253;SDS011;590;48.772;8.846;2023-07-20T09:58:21;2.23;;;2.03;;
253;SDS011;590;48.772;8.846;2023-07-20T10:00:50;1.70;;;1.43;;
253;SDS011;590;48.772;8.846;2023-07-20T10:03:21;1.40;;;1.30;;
253;SDS011;590;48.772;8.846;2023-07-20T10:05:52;1.70;;;1.60;;
253;SDS011;590;48.772;8.846;2023-07-20T10:08:23;1.27;;;1.10;;
253;SDS011;590;48.772;8.846;2023-07-20T10:10:56;2.67;;;1.93;;
253;SDS011;590;48.772;8.846;2023-07-20T10:13:27;1.60;;;1.50;;
253;SDS011;590;48.772;8.846;2023-07-20T10:15:58;1.20;;;1.10;;
253;SDS011;590;48.772;8.846;2023-07-20T10:18:31;2.33;;;1.40;;
253;SDS011;590;48.772;8.846;2023-07-20T10:21:06;1.17;;;0.97;;
253;SDS011;590;48.772;8.846;2023-07-20T10:23:37;1.40;;;1.00;;
253;SDS011;590;48.772;8.846;2023-07-20T10:26:10;1.33;;;1.23;;
253;SDS011;590;48.772;8.846;2023-07-20T10:28:39;1.40;;;1.27;;
253;SDS011;590;48.772;8.846;2023-07-20T10:31:07;1.43;;;1.33;;
253;SDS011;590;48.772;8.846;2023-07-20T10:33:36;1.37;;;1.30;;
253;SDS011;590;48.772;8.846;2023-07-20T10:36:05;1.80;;;1.37;;
253;SDS011;590;48.772;8.846;2023-07-20T10:38:40;1.30;;;1.20;;
253;SDS011;590;48.772;8.846;2023-07-20T10:41:20;1.37;;;1.23;;
253;SDS011;590;48.772;8.846;2023-07-20T10:43:51;1.90;;;1.30;;
253;SDS011;590;48.772;8.846;2023-07-20T10:46:34;1.23;;;1.13;;
253;SDS011;590;48.772;8.846;2023-07-20T10:49:10;1.60;;;1.50;;
253;SDS011;590;48.772;8.846;2023-07-20T10:51:41;2.20;;;0.97;;
253;SDS011;590;48.772;8.846;2023-07-20T10:54:33;1.63;;;1.13;;
253;SDS011;590;48.772;8.846;2023-07-20T11:00:07;1.37;;;1.23;;
253;SDS011;590;48.772;8.846;2023-07-20T11:02:43;1.77;;;1.40;;
253;SDS011;590;48.772;8.846;2023-07-20T11:05:32;1.27;;;1.20;;
253;SDS011;590;48.772;8.846;2023-07-20T11:08:05;1.30;;;1.20;;
253;SDS011;590;48.772;8.846;2023-07-20T11:10:37;1.43;;;1.37;;
253;SDS011;590;48.772;8.846;2023-07-20T11:13:20;0.80;;;0.80;;
253;SDS011;590;48.772;8.846;2023-07-20T11:16:02;1.40;;;1.30;;
253;SDS011;590;48.772;8.846;2023-07-20T11:18:34;1.67;;;1.43;;
253;SDS011;590;48.772;8.846;2023-07-20T11:21:07;2.07;;;1.50;;
253;SDS011;590;48.772;8.846;2023-07-20T11:23:38;1.47;;;1.37;;
253;SDS011;590;48.772;8.846;2023-07-20T11:26:07;1.67;;;1.27;;
253;SDS011;590;48.772;8.846;2023-07-20T11:28:37;1.53;;;1.17;;
253;SDS011;590;48.772;8.846;2023-07-20T11:31:05;1.40;;;1.30;;
253;SDS011;590;48.772;8.846;2023-07-20T11:33:33;1.80;;;1.70;;
253;SDS011;590;48.772;8.846;2023-07-20T11:36:01;1.50;;;1.40;;
253;SDS011;590;48.772;8.846;2023-07-20T11:38:51;1.60;;;1.20;;
253;SDS011;590;48.772;8.846;2023-07-20T11:41:20;1.50;;;1.40;;
253;SDS011;590;48.772;8.846;2023-07-20T11:43:50;1.10;;;1.00;;
253;SDS011;590;48.772;8.846;2023-07-20T11:46:18;1.77;;;1.10;;
253;SDS011;590;48.772;8.846;2023-07-20T11:48:46;3.37;;;1.10;;
253;SDS011;590;48.772;8.846;2023-07-20T11:51:14;1.77;;;1.60;;
253;SDS011;590;48.772;8.846;2023-07-20T11:53:44;3.53;;;1.73;;
253;SDS011;590;48.772;8.846;2023-07-20T11:56:13;1.67;;;1.30;;
253;SDS011;590;48.772;8.846;2023-07-20T11:58:41;1.63;;;1.53;;
253;SDS011;590;48.772;8.846;2023-07-20T12:01:12;2.07;;;1.40;;
253;SDS011;590;48.772;8.846;2023-07-20T12:03:41;1.63;;;1.60;;
253;SDS011;590;48.772;8.846;2023-07-20T12:06:10;1.03;;;0.97;;
253;SDS011;590;48.772;8.846;2023-07-20T12:08:38;1.73;;;1.40;;
253;SDS011;590;48.772;8.846;2023-07-20T12:11:08;1.67;;;1.40;;
253;SDS011;590;48.772;8.846;2023-07-20T12:13:36;1.73;;;1.47;;
253;SDS011;590;48.772;8.846;2023-07-20T12:16:13;1.00;;;0.90;;
253;SDS011;590;48.772;8.846;2023-07-20T12:18:43;1.80;;;1.07;;
253;SDS011;590;48.772;8.846;2023-07-20T12:21:11;1.50;;;1.40;;
253;SDS011;590;48.772;8.846;2023-07-20T12:23:40;2.30;;;1.23;;
253;SDS011;590;48.772;8.846;2023-07-20T12:26:09;1.20;;;1.10;;
253;SDS011;590;48.772;8.846;2023-07-20T12:28:41;1.50;;;1.43;;
253;SDS011;590;48.772;8.846;2023-07-20T12:31:09;2.20;;;1.33;;
253;SDS011;590;48.772;8.846;2023-07-20T12:33:41;3.13;;;1.10;;
253;SDS011;590;48.772;8.846;2023-07-20T12:36:09;1.97;;;1.30;;
253;SDS011;590;48.772;8.846;2023-07-20T12:38:37;1.57;;;1.50;;
253;SDS011;590;48.772;8.846;2023-07-20T12:41:05;1.30;;;1.30;;
253;SDS011;590;48.772;8.846;2023-07-20T12:43:33;1.57;;;1.47;;
253;SDS011;590;48.772;8.846;2023-07-20T12:46:02;1.17;;;1.07;;
253;SDS011;590;48.772;8.846;2023-07-20T12:48:30;1.60;;;1.13;;
253;SDS011;590;48.772;8.846;2023-07-20T12:50:59;1.20;;;1.00;;
253;SDS011;590;48.772;8.846;2023-07-20T12:53:27;1.20;;;1.10;;
253;SDS011;590;48.772;8.846;2023-07-20T12:55:55;1.20;;;1.10;;
253;SDS011;590;48.772;8.846;2023-07-20T12:58:23;1.10;;;1.00;;
253;SDS011;590;48.772;8.846;2023-07-20T13:00:52;1.50;;;1.43;;
253;SDS011;590;48.772;8.846;2023-07-20T13:03:20;1.43;;;1.33;;
253;SDS011;590;48.772;8.846;2023-07-20T13:05:52;1.20;;;1.13;;
253;SDS011;590;48.772;8.846;2023-07-20T13:08:24;1.13;;;1.00;;
253;SDS011;590;48.772;8.846;2023-07-20T13:10:53;1.17;;;1.00;;
253;SDS011;590;48.772;8.846;2023-07-20T13:13:21;1.73;;;1.43;;
253;SDS011;590;48.772;8.846;2023-07-20T13:15:49;1.40;;;1.30;;
253;SDS011;590;48.772;8.846;2023-07-20T13:18:17;1.40;;;1.30;;
253;SDS011;590;48.772;8.846;2023-07-20T13:20:45;1.67;;;1.60;;
253;SDS011;590;48.772;8.846;2023-07-20T13:23:13;1.13;;;1.10;;
253;SDS011;590;48.772;8.846;2023-07-20T13:25:43;2.03;;;1.53;;
253;SDS011;590;48.772;8.846;2023-07-20T13:28:11;1.20;;;1.00;;
253;SDS011;590;48.772;8.846;2023-07-20T13:30:39;1.60;;;1.50;;
253;SDS011;590;48.772;8.846;2023-07-20T13:33:07;2.43;;;1.90;;
253;SDS011;590;48.772;8.846;2023-07-20T13:35:39;1.37;;;1.27;;
253;SDS011;590;48.772;8.846;2023-07-20T13:38:10;1.67;;;1.40;;
253;SDS011;590;48.772;8.846;2023-07-20T13:40:39;1.83;;;1.73;;
253;SDS011;590;48.772;8.846;2023-07-20T13:43:08;1.47;;;1.43;;
253;SDS011;590;48.772;8.846;2023-07-20T13:45:36;1.83;;;1.27;;
253;SDS011;590;48.772;8.846;2023-07-20T13:48:05;1.47;;;1.37;;
253;SDS011;590;48.772;8.846;2023-07-20T13:50:33;1.70;;;1.60;;
253;SDS011;590;48.772;8.846;2023-07-20T13:53:04;2.30;;;1.40;;
253;SDS011;590;48.772;8.846;2023-07-20T13:55:35;1.63;;;1.60;;
253;SDS011;590;48.772;8.846;2023-07-20T13:58:09;1.23;;;1.20;;
253;SDS011;590;48.772;8.846;2023-07-20T14:00:39;1.40;;;1.23;;
253;SDS011;590;48.772;8.846;2023-07-20T14:03:07;1.67;;;1.57;;
253;SDS011;590;48.772;8.846;2023-07-20T14:05:38;1.27;;;1.13;;
253;SDS011;590;48.772;8.846;2023-07-20T14:08:09;1.60;;;1.60;;
253;SDS011;590;48.772;8.846;2023-07-20T14:10:37;1.73;;;1.63;;
253;SDS011;590;48.772;8.846;2023-07-20T14:13:09;1.63;;;1.30;;
253;SDS011;590;48.772;8.846;2023-07-20T14:15:38;1.40;;;1.30;;
253;SDS011;590;48.772;8.846;2023-07-20T14:18:07;1.90;;;1.53;;
253;SDS011;590;48.772;8.846;2023-07-20T14:20:35;3.03;;;1.40;;
253;SDS011;590;48.772;8.846;2023-07-20T14:23:05;2.20;;;1.60;;
253;SDS011;590;48.772;8.846;2023-07-20T14:25:33;2.37;;;1.40;;
253;SDS011;590;48.772;8.846;2023-07-20T14:28:03;1.83;;;1.27;;
253;SDS011;590;48.772;8.846;2023-07-20T14:30:33;1.83;;;1.73;;
253;SDS011;590;48.772;8.846;2023-07-20T14:33:01;1.20;;;1.10;;
253;SDS011;590;48.772;8.846;2023-07-20T14:35:29;1.37;;;1.30;;
253;SDS011;590;48.772;8.846;2023-07-20T14:37:57;1.93;;;1.60;;
253;SDS011;590;48.772;8.846;2023-07-20T14:40:25;1.50;;;1.40;;
253;SDS011;590;48.772;8.846;2023-07-20T14:42:55;2.27;;;1.43;;
253;SDS011;590;48.772;8.846;2023-07-20T14:45:23;1.23;;;1.23;;
253;SDS011;590;48.772;8.846;2023-07-20T14:47:52;1.80;;;1.67;;
253;SDS011;590;48.772;8.846;2023-07-20T14:50:21;1.20;;;1.17;;
253;SDS011;590;48.772;8.846;2023-07-20T14:52:49;1.60;;;1.43;;
253;SDS011;590;48.772;8.846;2023-07-20T14:55:17;1.40;;;1.10;;
253;SDS011;590;48.772;8.846;2023-07-20T14:57:45;1.53;;;1.33;;
253;SDS011;590;48.772;8.846;2023-07-20T15:00:15;1.40;;;1.30;;
253;SDS011;590;48.772;8.846;2023-07-20T15:02:43;1.60;;;1.50;;
253;SDS011;590;48.772;8.846;2023-07-20T15:05:14;1.63;;;1.50;;
253;SDS011;590;48.772;8.846;2023-07-20T15:07:48;1.43;;;1.37;;
253;SDS011;590;48.772;8.846;2023-07-20T15:10:16;1.50;;;1.40;;
253;SDS011;590;48.772;8.846;2023-07-20T15:12:44;1.60;;;1.30;;
253;SDS011;590;48.772;8.846;2023-07-20T15:15:13;1.50;;;1.40;;
253;SDS011;590;48.772;8.846;2023-07-20T15:17:43;4.10;;;1.33;;
253;SDS011;590;48.772;8.846;2023-07-20T15:20:14;1.63;;;1.50;;
253;SDS011;590;48.772;8.846;2023-07-20T15:22:42;1.83;;;1.80;;
253;SDS011;590;48.772;8.846;2023-07-20T15:25:15;1.40;;;1.40;;
253;SDS011;590;48.772;8.846;2023-07-20T15:27:43;1.60;;;1.50;;
253;SDS011;590;48.772;8.846;2023-07-20T15:30:16;1.37;;;1.27;;
253;SDS011;590;48.772;8.846;2023-07-20T15:32:47;1.63;;;1.53;;
253;SDS011;590;48.772;8.846;2023-07-20T15:35:19;1.40;;;1.30;;
253;SDS011;590;48.772;8.846;2023-07-20T15:37:47;1.47;;;1.37;;
253;SDS011;590;48.772;8.846;2023-07-20T15:40:16;1.83;;;1.53;;
253;SDS011;590;48.772;8.846;2023-07-20T15:42:44;1.63;;;1.53;;
253;SDS011;590;48.772;8.846;2023-07-20T15:45:19;2.10;;;1.50;;
253;SDS011;590;48.772;8.846;2023-07-20T15:47:47;2.40;;;1.53;;
253;SDS011;590;48.772;8.846;2023-07-20T15:50:15;1.37;;;1.17;;
253;SDS011;590;48.772;8.846;2023-07-20T15:52:49;1.30;;;1.20;;
253;SDS011;590;48.772;8.846;2023-07-20T15:55:17;2.93;;;1.47;;
253;SDS011;590;48.772;8.846;2023-07-20T15:57:45;1.67;;;1.37;;
253;SDS011;590;48.772;8.846;2023-07-20T16:00:13;1.40;;;1.30;;
253;SDS011;590;48.772;8.846;2023-07-20T16:02:44;2.00;;;1.40;;
253;SDS011;590;48.772;8.846;2023-07-20T16:05:12;2.73;;;1.40;;
253;SDS011;590;48.772;8.846;2023-07-20T16:07:41;1.77;;;1.37;;